sensor_id;sensor_type;location;lat;lon;timestamp;pressure;altitude;pressure_sealevel;temperature;humidity
49877;BME280;35771;48.978;9.294;2022-07-29T07:21:44;98803.63;;;22.81;79.65
49877;BME280;35771;48.978;9.294;2022-07-29T07:24:11;98803.16;;;23.20;76.89
49877;BME280;35771;48.978;9.294;2022-07-29T07:26:37;98788.44;;;23.25;75.38
49877;BME280;35771;48.978;9.294;2022-07-29T07:29:05;98804.25;;;23.29;75.54
49877;BME280;35771;48.978;9.294;2022-07-29T07:31:31;98806.41;;;23.74;75.08
49877;BME280;35771;48.978;9.294;2022-07-29T07:33:58;98800.97;;;24.39;71.48
49877;BME280;35771;48.978;9.294;2022-07-29T07:36:25;98800.84;;;24.70;67.33
49877;BME280;35771;48.978;9.294;2022-07-29T07:38:53;98802.56;;;24.61;66.45
49877;BME280;35771;48.978;9.294;2022-07-29T07:41:19;98806.44;;;24.54;68.01
49877;BME280;35771;48.978;9.294;2022-07-29T07:43:46;98795.47;;;24.84;63.95
49877;BME280;35771;48.978;9.294;2022-07-29T07:46:13;98799.31;;;24.93;64.38
49877;BME280;35771;48.978;9.294;2022-07-29T07:48:39;98787.28;;;24.48;63.35
49877;BME280;35771;48.978;9.294;2022-07-29T07:51:06;98794.63;;;24.83;61.70
49877;BME280;35771;48.978;9.294;2022-07-29T07:53:33;98794.97;;;25.51;62.10
49877;BME280;35771;48.978;9.294;2022-07-29T07:56:01;98798.38;;;25.42;61.61
49877;BME280;35771;48.978;9.294;2022-07-29T07:58:29;98791.94;;;25.76;59.06
49877;BME280;35771;48.978;9.294;2022-07-29T08:00:56;98783.44;;;24.94;61.13
49877;BME280;35771;48.978;9.294;2022-07-29T08:03:22;98781.59;;;24.24;63.22
49877;BME280;35771;48.978;9.294;2022-07-29T08:05:49;98789.41;;;24.16;64.26
49877;BME280;35771;48.978;9.294;2022-07-29T08:08:16;98787.09;;;24.39;64.21
49877;BME280;35771;48.978;9.294;2022-07-29T08:10:42;98774.97;;;24.19;64.16
49877;BME280;35771;48.978;9.294;2022-07-29T08:13:20;98789.59;;;24.41;64.61
49877;BME280;35771;48.978;9.294;2022-07-29T08:15:47;98802.22;;;24.72;63.26
49877;BME280;35771;48.978;9.294;2022-07-29T08:18:22;98786.28;;;24.33;63.14
49877;BME280;35771;48.978;9.294;2022-07-29T08:20:49;98813.13;;;24.59;63.34
49877;BME280;35771;48.978;9.294;2022-07-29T08:23:16;98791.31;;;24.81;62.45
49877;BME280;35771;48.978;9.294;2022-07-29T08:25:44;98796.94;;;25.11;62.91
49877;BME280;35771;48.978;9.294;2022-07-29T08:28:10;98817.22;;;24.77;63.61
49877;BME280;35771;48.978;9.294;2022-07-29T08:30:38;98800.03;;;24.64;62.06
49877;BME280;35771;48.978;9.294;2022-07-29T08:33:05;98806.44;;;24.60;62.78
49877;BME280;35771;48.978;9.294;2022-07-29T08:35:31;98810.38;;;24.48;62.39
49877;BME280;35771;48.978;9.294;2022-07-29T08:37:58;98798.22;;;24.89;61.28
49877;BME280;35771;48.978;9.294;2022-07-29T08:40:24;98803.09;;;25.07;61.77
49877;BME280;35771;48.978;9.294;2022-07-29T08:42:51;98810.91;;;25.00;61.12
49877;BME280;35771;48.978;9.294;2022-07-29T08:45:18;98800.69;;;25.35;59.56
49877;BME280;35771;48.978;9.294;2022-07-29T08:47:46;98787.88;;;25.64;57.27
49877;BME280;35771;48.978;9.294;2022-07-29T08:50:12;98794.66;;;26.11;56.43
49877;BME280;35771;48.978;9.294;2022-07-29T08:52:41;98810.03;;;26.52;54.53
49877;BME280;35771;48.978;9.294;2022-07-29T08:55:09;98772.81;;;26.42;54.39
49877;BME280;35771;48.978;9.294;2022-07-29T08:57:37;98797.94;;;26.80;54.40
49877;BME280;35771;48.978;9.294;2022-07-29T09:00:06;98783.03;;;26.71;53.65
49877;BME280;35771;48.978;9.294;2022-07-29T09:02:36;98792.59;;;27.03;52.10
49877;BME280;35771;48.978;9.294;2022-07-29T09:05:07;98798.16;;;27.22;52.00
49877;BME280;35771;48.978;9.294;2022-07-29T09:07:35;98805.31;;;27.28;53.23
49877;BME280;35771;48.978;9.294;2022-07-29T09:10:08;98802.50;;;27.28;51.94
49877;BME280;35771;48.978;9.294;2022-07-29T09:12:35;98779.91;;;26.92;49.72
49877;BME280;35771;48.978;9.294;2022-07-29T09:15:02;98790.47;;;26.95;48.57
49877;BME280;35771;48.978;9.294;2022-07-29T09:17:42;98783.63;;;26.87;48.21
49877;BME280;35771;48.978;9.294;2022-07-29T09:20:13;98801.25;;;27.20;48.11
49877;BME280;35771;48.978;9.294;2022-07-29T09:22:39;98795.88;;;27.24;47.16
49877;BME280;35771;48.978;9.294;2022-07-29T09:25:06;98773.91;;;26.84;47.48
49877;BME280;35771;48.978;9.294;2022-07-29T09:27:34;98805.31;;;26.90;48.05
49877;BME280;35771;48.978;9.294;2022-07-29T09:30:03;98779.44;;;26.46;49.89
49877;BME280;35771;48.978;9.294;2022-07-29T09:32:30;98800.88;;;26.70;49.84
49877;BME280;35771;48.978;9.294;2022-07-29T09:35:22;98795.00;;;26.72;50.09
49877;BME280;35771;48.978;9.294;2022-07-29T09:37:49;98798.63;;;26.91;49.22
49877;BME280;35771;48.978;9.294;2022-07-29T09:40:17;98792.22;;;26.91;48.91
49877;BME280;35771;48.978;9.294;2022-07-29T09:42:45;98780.53;;;26.89;49.94
49877;BME280;35771;48.978;9.294;2022-07-29T09:45:13;98798.00;;;26.94;48.61
49877;BME280;35771;48.978;9.294;2022-07-29T09:47:51;98769.66;;;27.06;48.66
49877;BME280;35771;48.978;9.294;2022-07-29T09:50:20;98791.00;;;27.16;48.79
49877;BME280;35771;48.978;9.294;2022-07-29T09:52:49;98781.56;;;27.12;49.30
49877;BME280;35771;48.978;9.294;2022-07-29T09:55:16;98778.34;;;27.05;49.08
49877;BME280;35771;48.978;9.294;2022-07-29T09:57:43;98777.94;;;27.11;48.97
49877;BME280;35771;48.978;9.294;2022-07-29T10:00:12;98771.63;;;27.06;48.26
49877;BME280;35771;48.978;9.294;2022-07-29T10:02:42;98786.81;;;27.32;48.17
49877;BME280;35771;48.978;9.294;2022-07-29T10:05:18;98760.91;;;27.46;46.00
49877;BME280;35771;48.978;9.294;2022-07-29T10:07:48;98788.56;;;27.28;48.14
49877;BME280;35771;48.978;9.294;2022-07-29T10:10:19;98791.00;;;27.49;48.43
49877;BME280;35771;48.978;9.294;2022-07-29T10:12:51;98781.13;;;27.57;47.91
49877;BME280;35771;48.978;9.294;2022-07-29T10:15:19;98787.91;;;27.50;47.23
49877;BME280;35771;48.978;9.294;2022-07-29T10:17:47;98771.63;;;27.71;48.27
49877;BME280;35771;48.978;9.294;2022-07-29T10:20:15;98772.41;;;28.05;46.96
49877;BME280;35771;48.978;9.294;2022-07-29T10:22:42;98748.56;;;27.80;46.85
49877;BME280;35771;48.978;9.294;2022-07-29T10:25:11;98768.56;;;28.15;46.57
49877;BME280;35771;48.978;9.294;2022-07-29T10:27:37;98769.53;;;27.96;46.52
49877;BME280;35771;48.978;9.294;2022-07-29T10:30:09;98761.31;;;28.14;45.84
49877;BME280;35771;48.978;9.294;2022-07-29T10:33:04;98771.53;;;27.77;46.19
49877;BME280;35771;48.978;9.294;2022-07-29T10:35:45;98763.22;;;27.44;45.09
49877;BME280;35771;48.978;9.294;2022-07-29T10:38:32;98763.25;;;27.71;44.64
49877;BME280;35771;48.978;9.294;2022-07-29T10:41:17;98772.28;;;27.82;44.69
49877;BME280;35771;48.978;9.294;2022-07-29T10:43:56;98754.97;;;27.80;44.47
49877;BME280;35771;48.978;9.294;2022-07-29T10:46:23;98759.56;;;28.32;44.02
49877;BME280;35771;48.978;9.294;2022-07-29T10:49:10;98754.16;;;27.80;42.57
49877;BME280;35771;48.978;9.294;2022-07-29T10:52:06;98743.97;;;27.42;44.02
49877;BME280;35771;48.978;9.294;2022-07-29T10:54:50;98750.31;;;27.48;44.61
49877;BME280;35771;48.978;9.294;2022-07-29T10:57:25;98748.66;;;27.61;44.82
49877;BME280;35771;48.978;9.294;2022-07-29T11:00:27;98752.03;;;27.44;45.65
49877;BME280;35771;48.978;9.294;2022-07-29T11:02:54;98755.28;;;27.32;45.84
49877;BME280;35771;48.978;9.294;2022-07-29T11:05:23;98747.63;;;27.57;44.98
49877;BME280;35771;48.978;9.294;2022-07-29T11:08:20;98753.00;;;27.67;42.46
49877;BME280;35771;48.978;9.294;2022-07-29T11:10:49;98735.28;;;27.44;43.18
49877;BME280;35771;48.978;9.294;2022-07-29T11:13:49;98749.09;;;27.82;43.24
49877;BME280;35771;48.978;9.294;2022-07-29T11:16:18;98748.25;;;27.95;42.69
49877;BME280;35771;48.978;9.294;2022-07-29T11:19:21;98749.22;;;28.04;42.74
49877;BME280;35771;48.978;9.294;2022-07-29T11:21:48;98737.09;;;27.95;41.96
49877;BME280;35771;48.978;9.294;2022-07-29T11:24:18;98739.88;;;27.95;42.37
49877;BME280;35771;48.978;9.294;2022-07-29T11:27:06;98733.06;;;27.73;41.41
49877;BME280;35771;48.978;9.294;2022-07-29T11:29:35;98731.63;;;27.90;41.80
49877;BME280;35771;48.978;9.294;2022-07-29T11:32:12;98743.25;;;27.97;41.51
49877;BME280;35771;48.978;9.294;2022-07-29T11:34:40;98751.06;;;27.81;41.68
49877;BME280;35771;48.978;9.294;2022-07-29T11:37:22;98733.44;;;27.53;42.19
49877;BME280;35771;48.978;9.294;2022-07-29T11:40:15;98755.66;;;27.44;42.13
49877;BME280;35771;48.978;9.294;2022-07-29T11:42:48;98755.75;;;27.20;43.12
49877;BME280;35771;48.978;9.294;2022-07-29T11:45:19;98751.97;;;27.30;42.46
49877;BME280;35771;48.978;9.294;2022-07-29T11:47:51;98746.09;;;27.78;43.63
49877;BME280;35771;48.978;9.294;2022-07-29T11:50:31;98742.88;;;27.85;43.58
49877;BME280;35771;48.978;9.294;2022-07-29T11:52:59;98755.91;;;27.89;43.32
49877;BME280;35771;48.978;9.294;2022-07-29T11:55:25;98737.50;;;28.30;43.49
49877;BME280;35771;48.978;9.294;2022-07-29T11:57:54;98714.69;;;29.10;41.86
49877;BME280;35771;48.978;9.294;2022-07-29T12:00:27;98724.56;;;29.30;39.98
49877;BME280;35771;48.978;9.294;2022-07-29T12:02:54;98707.47;;;29.09;40.57
49877;BME280;35771;48.978;9.294;2022-07-29T12:05:30;98724.09;;;28.91;40.14
49877;BME280;35771;48.978;9.294;2022-07-29T12:08:07;98726.66;;;29.02;40.22
49877;BME280;35771;48.978;9.294;2022-07-29T12:10:35;98729.56;;;28.96;39.48
49877;BME280;35771;48.978;9.294;2022-07-29T12:13:02;98712.22;;;29.08;39.53
49877;BME280;35771;48.978;9.294;2022-07-29T12:15:30;98712.25;;;29.71;38.58
49877;BME280;35771;48.978;9.294;2022-07-29T12:17:57;98719.16;;;29.34;37.82
49877;BME280;35771;48.978;9.294;2022-07-29T12:20:25;98702.03;;;29.66;37.00
49877;BME280;35771;48.978;9.294;2022-07-29T12:22:53;98715.50;;;29.56;36.57
49877;BME280;35771;48.978;9.294;2022-07-29T12:25:20;98717.53;;;29.41;36.89
49877;BME280;35771;48.978;9.294;2022-07-29T12:27:57;98728.06;;;29.67;36.34
49877;BME280;35771;48.978;9.294;2022-07-29T12:30:35;98721.09;;;29.56;39.07
49877;BME280;35771;48.978;9.294;2022-07-29T12:33:11;98727.19;;;29.26;42.19
49877;BME280;35771;48.978;9.294;2022-07-29T12:35:38;98724.81;;;28.97;44.17
49877;BME280;35771;48.978;9.294;2022-07-29T12:38:05;98725.63;;;28.24;46.38
49877;BME280;35771;48.978;9.294;2022-07-29T12:40:32;98725.63;;;27.69;47.94
49877;BME280;35771;48.978;9.294;2022-07-29T12:43:07;98714.03;;;27.62;47.47
49877;BME280;35771;48.978;9.294;2022-07-29T12:45:36;98709.50;;;28.21;47.75
49877;BME280;35771;48.978;9.294;2022-07-29T12:48:04;98721.78;;;28.34;46.93
49877;BME280;35771;48.978;9.294;2022-07-29T12:50:32;98733.66;;;28.40;46.88
49877;BME280;35771;48.978;9.294;2022-07-29T12:53:08;98723.78;;;28.06;44.82
49877;BME280;35771;48.978;9.294;2022-07-29T12:55:43;98693.41;;;28.41;45.12
49877;BME280;35771;48.978;9.294;2022-07-29T12:58:14;98717.00;;;28.35;44.67
49877;BME280;35771;48.978;9.294;2022-07-29T13:01:03;98719.97;;;28.52;42.63
49877;BME280;35771;48.978;9.294;2022-07-29T13:03:44;98718.03;;;28.39;45.04
49877;BME280;35771;48.978;9.294;2022-07-29T13:06:39;98703.88;;;27.94;46.78
49877;BME280;35771;48.978;9.294;2022-07-29T13:09:08;98713.59;;;28.38;46.21
49877;BME280;35771;48.978;9.294;2022-07-29T13:11:37;98715.00;;;27.99;47.65
49877;BME280;35771;48.978;9.294;2022-07-29T13:14:05;98723.13;;;27.95;48.19
49877;BME280;35771;48.978;9.294;2022-07-29T13:16:35;98747.88;;;28.16;47.17
49877;BME280;35771;48.978;9.294;2022-07-29T13:19:09;98748.81;;;28.25;47.58
49877;BME280;35771;48.978;9.294;2022-07-29T13:21:38;98743.75;;;28.13;45.60
49877;BME280;35771;48.978;9.294;2022-07-29T13:24:06;98749.44;;;28.08;46.42
49877;BME280;35771;48.978;9.294;2022-07-29T13:26:33;98748.56;;;27.94;46.28
49877;BME280;35771;48.978;9.294;2022-07-29T13:29:00;98762.59;;;27.47;44.99
49877;BME280;35771;48.978;9.294;2022-07-29T13:31:27;98761.34;;;26.68;46.19
49877;BME280;35771;48.978;9.294;2022-07-29T13:33:55;98753.19;;;26.72;45.73
49877;BME280;35771;48.978;9.294;2022-07-29T13:36:21;98749.38;;;27.00;44.96
49877;BME280;35771;48.978;9.294;2022-07-29T13:38:48;98778.28;;;26.72;45.39
49877;BME280;35771;48.978;9.294;2022-07-29T13:41:23;98764.84;;;26.93;45.08
49877;BME280;35771;48.978;9.294;2022-07-29T13:43:49;98751.22;;;26.72;45.13
49877;BME280;35771;48.978;9.294;2022-07-29T13:46:16;98753.00;;;26.63;45.06
49877;BME280;35771;48.978;9.294;2022-07-29T13:48:42;98742.28;;;26.75;44.70
49877;BME280;35771;48.978;9.294;2022-07-29T13:51:10;98745.47;;;27.01;44.39
49877;BME280;35771;48.978;9.294;2022-07-29T13:53:37;98748.31;;;27.34;43.73
49877;BME280;35771;48.978;9.294;2022-07-29T13:56:04;98741.59;;;27.16;44.28
49877;BME280;35771;48.978;9.294;2022-07-29T13:58:32;98746.78;;;27.23;44.28
49877;BME280;35771;48.978;9.294;2022-07-29T14:00:59;98721.88;;;27.60;43.65
49877;BME280;35771;48.978;9.294;2022-07-29T14:03:26;98724.69;;;27.60;44.20
49877;BME280;35771;48.978;9.294;2022-07-29T14:05:53;98737.56;;;27.42;44.40
49877;BME280;35771;48.978;9.294;2022-07-29T14:08:21;98736.84;;;27.50;44.31
49877;BME280;35771;48.978;9.294;2022-07-29T14:10:48;98717.09;;;27.13;45.37
49877;BME280;35771;48.978;9.294;2022-07-29T14:13:14;98710.13;;;26.97;45.65
49877;BME280;35771;48.978;9.294;2022-07-29T14:15:41;98709.41;;;27.05;46.72
49877;BME280;35771;48.978;9.294;2022-07-29T14:18:07;98730.03;;;26.90;46.98
49877;BME280;35771;48.978;9.294;2022-07-29T14:20:34;98724.19;;;26.73;47.90
49877;BME280;35771;48.978;9.294;2022-07-29T14:23:02;98713.38;;;26.66;48.43
49877;BME280;35771;48.978;9.294;2022-07-29T14:25:30;98711.41;;;26.47;48.73
49877;BME280;35771;48.978;9.294;2022-07-29T14:27:56;98722.56;;;26.47;49.15
49877;BME280;35771;48.978;9.294;2022-07-29T14:30:23;98730.03;;;26.52;49.91
49877;BME280;35771;48.978;9.294;2022-07-29T14:32:49;98720.91;;;26.46;49.92
49877;BME280;35771;48.978;9.294;2022-07-29T14:35:16;98713.88;;;26.30;50.14
49877;BME280;35771;48.978;9.294;2022-07-29T14:37:43;98717.72;;;26.15;51.14
49877;BME280;35771;48.978;9.294;2022-07-29T14:40:10;98725.09;;;26.25;51.05
49877;BME280;35771;48.978;9.294;2022-07-29T14:42:39;98709.91;;;26.17;51.67
49877;BME280;35771;48.978;9.294;2022-07-29T14:45:07;98741.91;;;26.20;52.01
49877;BME280;35771;48.978;9.294;2022-07-29T14:47:34;98731.78;;;26.05;53.03
49877;BME280;35771;48.978;9.294;2022-07-29T14:50:01;98727.13;;;26.19;53.00
49877;BME280;35771;48.978;9.294;2022-07-29T14:52:27;98740.72;;;26.45;53.19
49877;BME280;35771;48.978;9.294;2022-07-29T14:54:54;98733.03;;;26.37;52.77
49877;BME280;35771;48.978;9.294;2022-07-29T14:57:20;98723.53;;;26.19;52.42
49877;BME280;35771;48.978;9.294;2022-07-29T14:59:48;98730.97;;;26.23;52.74
49877;BME280;35771;48.978;9.294;2022-07-29T15:02:15;98743.19;;;26.46;52.31
49877;BME280;35771;48.978;9.294;2022-07-29T15:04:42;98750.66;;;26.32;52.73
49877;BME280;35771;48.978;9.294;2022-07-29T15:07:10;98744.78;;;26.53;52.82
49877;BME280;35771;48.978;9.294;2022-07-29T15:09:37;98728.22;;;26.42;52.16
49877;BME280;35771;48.978;9.294;2022-07-29T15:12:04;98735.22;;;26.40;51.37
49877;BME280;35771;48.978;9.294;2022-07-29T15:14:31;98741.69;;;26.54;52.73
49877;BME280;35771;48.978;9.294;2022-07-29T15:16:59;98726.16;;;26.48;51.90
49877;BME280;35771;48.978;9.294;2022-07-29T15:19:26;98747.31;;;26.73;50.80
49877;BME280;35771;48.978;9.294;2022-07-29T15:21:52;98745.63;;;26.72;50.26
49877;BME280;35771;48.978;9.294;2022-07-29T15:24:19;98764.28;;;26.53;50.49
49877;BME280;35771;48.978;9.294;2022-07-29T15:26:46;98721.22;;;26.64;50.57
49877;BME280;35771;48.978;9.294;2022-07-29T15:29:13;98754.66;;;26.64;50.45
49877;BME280;35771;48.978;9.294;2022-07-29T15:31:40;98725.13;;;26.44;50.96
49877;BME280;35771;48.978;9.294;2022-07-29T15:34:08;98757.84;;;26.57;50.67
49877;BME280;35771;48.978;9.294;2022-07-29T15:36:34;98748.13;;;26.74;50.88
49877;BME280;35771;48.978;9.294;2022-07-29T15:39:01;98734.00;;;26.46;51.19
49877;BME280;35771;48.978;9.294;2022-07-29T15:41:28;98746.75;;;26.52;51.43
49877;BME280;35771;48.978;9.294;2022-07-29T15:43:54;98756.78;;;26.53;51.04
49877;BME280;35771;48.978;9.294;2022-07-29T15:46:21;98757.69;;;26.48;51.16
49877;BME280;35771;48.978;9.294;2022-07-29T15:49:07;98730.47;;;26.40;51.74
49877;BME280;35771;48.978;9.294;2022-07-29T15:51:34;98754.44;;;26.60;51.96
49877;BME280;35771;48.978;9.294;2022-07-29T15:54:01;98754.66;;;26.64;51.55
49877;BME280;35771;48.978;9.294;2022-07-29T15:56:29;98761.53;;;26.72;49.49
49877;BME280;35771;48.978;9.294;2022-07-29T15:58:55;98726.03;;;26.58;39.86
49877;BME280;35771;48.978;9.294;2022-07-29T16:01:23;98754.09;;;26.86;37.69
49877;BME280;35771;48.978;9.294;2022-07-29T16:03:50;98746.63;;;26.81;36.67
49877;BME280;35771;48.978;9.294;2022-07-29T16:06:17;98741.13;;;26.95;36.14
49877;BME280;35771;48.978;9.294;2022-07-29T16:08:44;98753.13;;;27.10;36.15
49877;BME280;35771;48.978;9.294;2022-07-29T16:11:11;98740.34;;;26.90;35.17
49877;BME280;35771;48.978;9.294;2022-07-29T16:13:37;98750.03;;;27.11;35.65
49877;BME280;35771;48.978;9.294;2022-07-29T16:16:04;98758.84;;;27.18;35.78
49877;BME280;35771;48.978;9.294;2022-07-29T16:18:30;98739.97;;;27.29;35.55
49877;BME280;35771;48.978;9.294;2022-07-29T16:20:58;98747.25;;;27.11;35.00
49877;BME280;35771;48.978;9.294;2022-07-29T16:23:26;98736.41;;;27.10;35.84
49877;BME280;35771;48.978;9.294;2022-07-29T16:25:52;98735.09;;;27.21;34.83
49877;BME280;35771;48.978;9.294;2022-07-29T16:28:19;98759.47;;;27.34;35.03
49877;BME280;35771;48.978;9.294;2022-07-29T16:30:45;98741.56;;;27.35;34.74
49877;BME280;35771;48.978;9.294;2022-07-29T16:33:12;98744.28;;;27.41;34.85
49877;BME280;35771;48.978;9.294;2022-07-29T16:35:38;98751.91;;;27.35;34.94
49877;BME280;35771;48.978;9.294;2022-07-29T16:38:05;98743.16;;;27.23;35.13
49877;BME280;35771;48.978;9.294;2022-07-29T16:40:33;98743.16;;;27.23;35.15
49877;BME280;35771;48.978;9.294;2022-07-29T16:43:00;98745.50;;;27.15;34.88
49877;BME280;35771;48.978;9.294;2022-07-29T16:45:27;98736.19;;;27.06;35.12
49877;BME280;35771;48.978;9.294;2022-07-29T16:47:53;98739.06;;;27.01;35.19
49877;BME280;35771;48.978;9.294;2022-07-29T16:50:21;98735.69;;;27.04;35.23
49877;BME280;35771;48.978;9.294;2022-07-29T16:52:47;98738.53;;;26.99;35.08
49877;BME280;35771;48.978;9.294;2022-07-29T16:55:14;98735.53;;;26.95;34.48
49877;BME280;35771;48.978;9.294;2022-07-29T16:57:42;98734.63;;;27.00;35.20
49877;BME280;35771;48.978;9.294;2022-07-29T17:00:10;98732.97;;;26.99;34.90
49877;BME280;35771;48.978;9.294;2022-07-29T17:02:37;98751.94;;;27.16;35.43
49877;BME280;35771;48.978;9.294;2022-07-29T17:05:05;98749.53;;;27.09;35.68
49877;BME280;35771;48.978;9.294;2022-07-29T17:07:31;98744.56;;;27.06;35.32
49877;BME280;35771;48.978;9.294;2022-07-29T17:09:58;98753.03;;;27.01;35.57
49877;BME280;35771;48.978;9.294;2022-07-29T17:12:25;98749.19;;;26.97;36.08
49877;BME280;35771;48.978;9.294;2022-07-29T17:14:53;98762.00;;;26.98;36.17
49877;BME280;35771;48.978;9.294;2022-07-29T17:17:20;98734.00;;;27.03;36.54
49877;BME280;35771;48.978;9.294;2022-07-29T17:19:47;98748.72;;;27.09;36.67
49877;BME280;35771;48.978;9.294;2022-07-29T17:22:13;98755.44;;;27.22;35.94
49877;BME280;35771;48.978;9.294;2022-07-29T17:24:40;98751.00;;;26.88;35.36
49877;BME280;35771;48.978;9.294;2022-07-29T17:27:07;98759.78;;;26.95;35.25
49877;BME280;35771;48.978;9.294;2022-07-29T17:29:34;98746.19;;;26.74;35.28
49877;BME280;35771;48.978;9.294;2022-07-29T17:32:02;98770.53;;;26.88;35.59
49877;BME280;35771;48.978;9.294;2022-07-29T17:34:29;98768.84;;;26.87;35.49
49877;BME280;35771;48.978;9.294;2022-07-29T17:36:56;98758.75;;;26.72;35.84
49877;BME280;35771;48.978;9.294;2022-07-29T17:39:22;98775.66;;;26.80;35.42
49877;BME280;35771;48.978;9.294;2022-07-29T17:41:49;98773.59;;;26.67;35.42
49877;BME280;35771;48.978;9.294;2022-07-29T17:44:15;98749.09;;;26.64;35.81
49877;BME280;35771;48.978;9.294;2022-07-29T17:46:42;98753.47;;;26.70;36.18
49877;BME280;35771;48.978;9.294;2022-07-29T17:49:10;98779.34;;;26.76;35.73
49877;BME280;35771;48.978;9.294;2022-07-29T17:51:37;98761.97;;;26.60;36.58
49877;BME280;35771;48.978;9.294;2022-07-29T17:54:04;98763.94;;;26.59;35.08
49877;BME280;35771;48.978;9.294;2022-07-29T17:56:30;98778.63;;;26.65;35.18
49877;BME280;35771;48.978;9.294;2022-07-29T17:58:57;98763.94;;;26.59;34.67
49877;BME280;35771;48.978;9.294;2022-07-29T18:01:25;98769.44;;;26.45;34.49
49877;BME280;35771;48.978;9.294;2022-07-29T18:03:52;98769.31;;;26.31;34.40
49877;BME280;35771;48.978;9.294;2022-07-29T18:06:20;98762.41;;;26.29;34.86
49877;BME280;35771;48.978;9.294;2022-07-29T18:08:46;98780.69;;;26.35;34.84
49877;BME280;35771;48.978;9.294;2022-07-29T18:11:13;98770.75;;;26.29;35.24
49877;BME280;35771;48.978;9.294;2022-07-29T18:13:40;98772.47;;;26.25;35.75
49877;BME280;35771;48.978;9.294;2022-07-29T18:16:07;98755.66;;;26.11;34.66
49877;BME280;35771;48.978;9.294;2022-07-29T18:18:34;98770.19;;;26.08;35.11
49877;BME280;35771;48.978;9.294;2022-07-29T18:21:01;98783.84;;;26.04;35.06
49877;BME280;35771;48.978;9.294;2022-07-29T18:23:29;98784.72;;;26.05;34.83
49877;BME280;35771;48.978;9.294;2022-07-29T18:25:56;98778.06;;;26.01;35.27
49877;BME280;35771;48.978;9.294;2022-07-29T18:28:22;98803.34;;;26.04;35.27
49877;BME280;35771;48.978;9.294;2022-07-29T18:30:49;98795.06;;;25.99;35.21
49877;BME280;35771;48.978;9.294;2022-07-29T18:33:16;98787.16;;;25.82;35.29
49877;BME280;35771;48.978;9.294;2022-07-29T18:35:44;98804.03;;;25.91;39.08
49877;BME280;35771;48.978;9.294;2022-07-29T18:38:11;98780.28;;;25.45;48.26
49877;BME280;35771;48.978;9.294;2022-07-29T18:40:40;98787.31;;;25.37;51.27
49877;BME280;35771;48.978;9.294;2022-07-29T18:43:07;98793.75;;;25.27;53.39
49877;BME280;35771;48.978;9.294;2022-07-29T18:45:34;98799.13;;;25.19;54.06
49877;BME280;35771;48.978;9.294;2022-07-29T18:48:01;98793.06;;;25.06;55.56
49877;BME280;35771;48.978;9.294;2022-07-29T18:50:28;98789.53;;;25.01;55.83
49877;BME280;35771;48.978;9.294;2022-07-29T18:52:54;98790.69;;;24.95;56.86
49877;BME280;35771;48.978;9.294;2022-07-29T18:55:22;98810.38;;;24.98;56.92
49877;BME280;35771;48.978;9.294;2022-07-29T18:57:50;98796.66;;;24.72;58.01
49877;BME280;35771;48.978;9.294;2022-07-29T19:00:17;98814.91;;;24.89;57.50
49877;BME280;35771;48.978;9.294;2022-07-29T19:02:44;98802.22;;;24.72;57.13
49877;BME280;35771;48.978;9.294;2022-07-29T19:05:10;98826.72;;;24.65;58.05
49877;BME280;35771;48.978;9.294;2022-07-29T19:07:37;98814.25;;;24.52;58.33
49877;BME280;35771;48.978;9.294;2022-07-29T19:10:04;98830.41;;;24.45;59.55
49877;BME280;35771;48.978;9.294;2022-07-29T19:12:31;98844.34;;;24.25;60.23
49877;BME280;35771;48.978;9.294;2022-07-29T19:14:59;98848.28;;;24.13;54.54
49877;BME280;35771;48.978;9.294;2022-07-29T19:17:25;98846.97;;;23.85;55.57
49877;BME280;35771;48.978;9.294;2022-07-29T19:19:52;98833.34;;;23.53;58.09
49877;BME280;35771;48.978;9.294;2022-07-29T19:22:19;98851.69;;;23.38;60.24
49877;BME280;35771;48.978;9.294;2022-07-29T19:24:46;98855.00;;;23.25;61.88
49877;BME280;35771;48.978;9.294;2022-07-29T19:27:12;98843.03;;;23.04;62.38
49877;BME280;35771;48.978;9.294;2022-07-29T19:29:39;98875.72;;;23.07;62.72
49877;BME280;35771;48.978;9.294;2022-07-29T19:32:07;98858.25;;;22.96;62.95
49877;BME280;35771;48.978;9.294;2022-07-29T19:34:34;98884.94;;;23.18;62.75
49877;BME280;35771;48.978;9.294;2022-07-29T19:37:00;98879.59;;;23.06;63.34
49877;BME280;35771;48.978;9.294;2022-07-29T19:39:27;98862.91;;;22.85;63.31
